Time;durP1;ratioP1;P1;durP2;ratioP2;P2;SDS_P1;SDS_P2;PMS_P1;PMS_P2;Temp;Humidity;BMP_temperature;BMP_pressure;BME280_temperature;BME280_humidity;BME280_pressure;Samples;Min_cycle;Max_cycle;Signal;HPM_P1;HPM_P2
2024/02/24 00:00:38;;;;;;;0.90;0.80;;;;;;;1.89;100.00;91208.31;2088831;28;20679;-81
2024/02/24 00:01:39;;;;;;;1.65;0.93;;;;;;;1.90;100.00;91200.03;2088975;28;20202;-80
2024/02/24 00:02:40;;;;;;;0.93;0.70;;;;;;;1.82;100.00;91205.84;2098233;28;20099;-81
2024/02/24 00:03:41;;;;;;;1.45;0.82;;;;;;;1.89;100.00;91200.41;2106816;28;20032;-80
2024/02/24 00:04:42;;;;;;;2.47;1.00;;;;;;;1.79;100.00;91212.66;2098041;28;20028;-80
2024/02/24 00:05:43;;;;;;;2.88;0.70;;;;;;;1.72;100.00;91207.56;2098156;28;20021;-80
2024/02/24 00:06:44;;;;;;;2.05;0.80;;;;;;;1.84;100.00;91211.44;2106498;28;20026;-82
2024/02/24 00:07:45;;;;;;;3.78;1.10;;;;;;;1.93;100.00;91198.44;2106458;28;20016;-82
2024/02/24 00:08:46;;;;;;;1.20;1.10;;;;;;;1.87;100.00;91205.34;2087914;28;20056;-80
2024/02/24 00:09:47;;;;;;;1.88;0.90;;;;;;;2.01;100.00;91199.78;2088274;28;20041;-79
2024/02/24 00:10:47;;;;;;;2.53;1.05;;;;;;;2.00;100.00;91195.69;2098406;28;20031;-80
2024/02/24 00:11:48;;;;;;;3.00;1.10;;;;;;;1.96;100.00;91202.91;2106571;28;20035;-82
2024/02/24 00:12:49;;;;;;;1.42;0.90;;;;;;;1.97;100.00;91204.38;2107717;28;20373;-80
2024/02/24 00:13:50;;;;;;;1.77;1.23;;;;;;;2.00;100.00;91198.31;2098221;28;20027;-81
2024/02/24 00:14:51;;;;;;;2.20;1.10;;;;;;;2.10;100.00;91197.34;2098321;28;20900;-80
2024/02/24 00:15:52;;;;;;;3.60;0.90;;;;;;;1.99;100.00;91210.75;2089981;28;20079;-81
2024/02/24 00:16:53;;;;;;;2.17;1.02;;;;;;;2.21;100.00;91216.31;2092426;28;20032;-80
2024/02/24 00:17:54;;;;;;;2.25;1.00;;;;;;;2.04;100.00;91220.06;2098304;28;20040;-80
2024/02/24 00:18:56;;;;;;;1.75;0.82;;;;;;;2.08;100.00;91225.25;2106602;28;20035;-80
2024/02/24 00:19:57;;;;;;;2.58;0.90;;;;;;;1.93;100.00;91222.16;2103426;28;20055;-82
2024/02/24 00:20:58;;;;;;;1.55;0.80;;;;;;;2.06;100.00;91215.13;2057469;28;20021;-80
2024/02/24 00:21:59;;;;;;;0.93;0.70;;;;;;;1.96;100.00;91219.47;1968926;28;24369;-80
2024/02/24 00:23:00;;;;;;;3.05;0.90;;;;;;;2.09;100.00;91216.19;2051018;28;20038;-80
2024/02/24 00:24:01;;;;;;;0.70;0.70;;;;;;;2.06;100.00;91211.75;2031202;28;20099;-80
2024/02/24 00:25:02;;;;;;;3.72;0.77;;;;;;;2.06;100.00;91217.75;2079766;27;20572;-81
2024/02/24 00:26:03;;;;;;;1.58;0.80;;;;;;;2.09;100.00;91222.22;2034510;28;20039;-79
2024/02/24 00:27:05;;;;;;;3.50;0.73;;;;;;;2.12;100.00;91231.94;2008337;28;22148;-80
2024/02/24 00:28:09;;;;;;;1.45;0.80;;;;;;;2.20;100.00;91237.81;2070666;28;20051;-80
2024/02/24 00:29:10;;;;;;;1.48;0.90;;;;;;;2.29;100.00;91235.34;2075849;28;20071;-80
2024/02/24 00:30:12;;;;;;;1.10;0.70;;;;;;;2.35;100.00;91241.63;2080810;28;20115;-81
2024/02/24 00:31:13;;;;;;;0.95;0.70;;;;;;;2.28;100.00;91236.50;2082388;28;20040;-81
2024/02/24 00:32:18;;;;;;;1.63;0.63;;;;;;;2.13;100.00;91248.50;2075134;28;20416;-79
2024/02/24 00:33:19;;;;;;;0.52;0.52;;;;;;;2.36;100.00;91237.81;2076763;28;20024;-79
2024/02/24 00:34:19;;;;;;;0.93;0.70;;;;;;;2.41;100.00;91242.59;2082679;27;21648;-79
2024/02/24 00:35:22;;;;;;;2.28;0.90;;;;;;;2.41;100.00;91242.59;2058295;28;20123;-80
2024/02/24 00:36:23;;;;;;;1.13;0.60;;;;;;;2.42;100.00;91243.38;1991614;28;20032;-81
2024/02/24 00:37:24;;;;;;;1.48;0.60;;;;;;;2.22;100.00;91246.03;1997048;28;20039;-80
2024/02/24 00:38:24;;;;;;;1.17;0.77;;;;;;;2.52;100.00;91253.66;1937346;28;20032;-80
2024/02/24 00:39:26;;;;;;;2.70;0.60;;;;;;;2.61;100.00;91239.91;1863617;27;20181;-80
2024/02/24 00:40:27;;;;;;;0.77;0.60;;;;;;;2.48;100.00;91247.00;1897066;28;21883;-81
2024/02/24 00:41:28;;;;;;;2.00;0.70;;;;;;;2.92;100.00;91247.50;1908912;28;23068;-80
2024/02/24 00:42:29;;;;;;;2.70;0.70;;;;;;;2.91;100.00;91246.78;1845994;28;20039;-80
2024/02/24 00:43:30;;;;;;;1.95;0.60;;;;;;;2.95;100.00;91250.06;1920528;28;20039;-80
2024/02/24 00:44:31;;;;;;;3.08;0.85;;;;;;;2.93;100.00;91249.72;2061417;28;20165;-79
2024/02/24 00:45:32;;;;;;;2.95;0.90;;;;;;;2.90;100.00;91240.00;2071988;28;20024;-80
2024/02/24 00:46:33;;;;;;;1.90;0.77;;;;;;;2.83;100.00;91240.19;2039828;28;20063;-80
2024/02/24 00:47:34;;;;;;;1.08;0.70;;;;;;;2.73;100.00;91241.16;2025363;28;20066;-80
2024/02/24 00:48:35;;;;;;;0.73;0.60;;;;;;;2.80;100.00;91242.88;2044232;28;20029;-80
2024/02/24 00:49:36;;;;;;;2.20;0.50;;;;;;;2.81;100.00;91234.59;2084177;28;20146;-80
2024/02/24 00:50:37;;;;;;;1.20;0.68;;;;;;;2.76;100.00;91242.97;2051090;28;20051;-80
2024/02/24 00:51:38;;;;;;;0.60;0.60;;;;;;;2.86;100.00;91243.91;2080991;28;20025;-82
2024/02/24 00:52:40;;;;;;;1.00;0.70;;;;;;;2.89;100.00;91243.78;2043300;28;20155;-80
2024/02/24 00:53:41;;;;;;;0.85;0.77;;;;;;;2.86;100.00;91238.63;2042785;28;20028;-81
2024/02/24 00:54:41;;;;;;;0.90;0.60;;;;;;;2.77;100.00;91245.22;2048571;28;23483;-80
2024/02/24 00:55:42;;;;;;;1.40;0.80;;;;;;;2.85;100.00;91245.75;2042847;28;20059;-80
2024/02/24 00:56:44;;;;;;;1.95;0.70;;;;;;;2.86;100.00;91249.91;2052488;28;20055;-81
2024/02/24 00:57:45;;;;;;;1.80;0.75;;;;;;;2.85;100.00;91245.75;2075217;28;22120;-80
2024/02/24 00:58:46;;;;;;;1.00;0.50;;;;;;;2.82;100.00;91249.25;2063548;28;20123;-81
2024/02/24 00:59:47;;;;;;;2.00;0.60;;;;;;;2.70;100.00;91242.72;2066056;28;20146;-80
2024/02/24 01:00:48;;;;;;;1.55;0.93;;;;;;;2.65;100.00;91247.75;2076357;28;22408;-80
2024/02/24 01:01:49;;;;;;;2.00;0.60;;;;;;;2.46;100.00;91251.94;2087496;28;20062;-81
2024/02/24 01:02:50;;;;;;;1.60;0.80;;;;;;;2.50;100.00;91253.34;2089601;28;20457;-80
2024/02/24 01:03:51;;;;;;;0.80;0.70;;;;;;;2.52;100.00;91251.03;2089636;28;20063;-82
2024/02/24 01:04:52;;;;;;;0.50;0.50;;;;;;;2.45;100.00;91253.81;2087816;28;20020;-80
2024/02/24 01:05:53;;;;;;;1.90;0.90;;;;;;;2.36;100.00;91261.56;2089311;28;20489;-80
2024/02/24 01:06:54;;;;;;;2.17;0.70;;;;;;;2.56;100.00;91260.78;2103613;28;20027;-81
2024/02/24 01:07:56;;;;;;;1.90;0.90;;;;;;;2.60;100.00;91261.44;2104808;28;20150;-82
2024/02/24 01:08:57;;;;;;;1.42;0.60;;;;;;;2.51;100.00;91256.72;2097817;28;20024;-82
2024/02/24 01:09:58;;;;;;;1.08;0.43;;;;;;;2.61;100.00;91253.09;2097719;28;20389;-80
2024/02/24 01:10:59;;;;;;;2.00;0.70;;;;;;;2.59;100.00;91257.28;2103891;28;20020;-80
2024/02/24 01:12:02;;;;;;;1.70;0.70;;;;;;;2.71;100.00;91254.75;2112773;28;20043;-80
2024/02/24 01:13:27;;;;;;;1.73;0.68;;;;;;;2.65;100.00;91255.66;2097724;28;20087;-81
2024/02/24 01:14:29;;;;;;;1.05;0.70;;;;;;;2.67;100.00;91259.38;2095626;28;20147;-80
2024/02/24 01:15:30;;;;;;;0.68;0.68;;;;;;;2.69;100.00;91261.59;2114470;28;20024;-80
2024/02/24 01:16:31;;;;;;;2.10;0.65;;;;;;;2.67;100.00;91263.91;2097807;28;20078;-81
2024/02/24 01:17:31;;;;;;;0.75;0.65;;;;;;;2.58;100.00;91267.09;2081056;28;20021;-81
2024/02/24 01:18:32;;;;;;;1.17;0.60;;;;;;;2.54;100.00;91263.81;2089408;28;20402;-81
2024/02/24 01:19:33;;;;;;;0.98;0.68;;;;;;;2.53;100.00;91268.34;2097616;28;20031;-80
2024/02/24 01:20:34;;;;;;;0.77;0.65;;;;;;;2.64;100.00;91262.84;2097633;28;20036;-80
2024/02/24 01:21:42;;;;;;;0.65;0.60;;;;;;;2.51;100.00;91269.91;2097705;28;20598;-80
2024/02/24 01:22:45;;;;;;;0.50;0.50;;;;;;;2.52;100.00;91266.84;2097483;28;20024;-80
2024/02/24 01:23:46;;;;;;;2.08;0.57;;;;;;;2.52;100.00;91264.22;2097314;28;20491;-81
2024/02/24 01:24:47;;;;;;;1.58;0.60;;;;;;;2.57;100.00;91265.63;2108591;28;20055;-82
2024/02/24 01:25:48;;;;;;;1.58;0.60;;;;;;;2.53;100.00;91270.97;2106242;28;20065;-80
2024/02/24 01:26:49;;;;;;;1.45;0.80;;;;;;;2.59;100.00;91267.84;2097262;28;20194;-80
2024/02/24 01:27:50;;;;;;;2.53;0.70;;;;;;;2.65;100.00;91261.69;2097209;28;20090;-82
2024/02/24 01:28:51;;;;;;;2.17;0.90;;;;;;;2.65;100.00;91260.94;2097496;28;20066;-81
2024/02/24 01:29:52;;;;;;;1.48;0.60;;;;;;;2.61;100.00;91263.66;2097170;28;20024;-81
2024/02/24 01:30:53;;;;;;;1.13;0.60;;;;;;;2.54;100.00;91258.53;2103905;28;20520;-80
2024/02/24 01:31:59;;;;;;;0.90;0.70;;;;;;;2.28;100.00;91268.13;2105620;28;20027;-81
2024/02/24 01:33:00;;;;;;;1.05;0.70;;;;;;;2.40;100.00;91264.13;2099169;28;20388;-81
2024/02/24 01:34:01;;;;;;;0.80;0.77;;;;;;;2.63;100.00;91268.50;2089049;28;20107;-80
2024/02/24 01:35:02;;;;;;;0.93;0.60;;;;;;;2.68;100.00;91265.41;2094271;28;20021;-81
2024/02/24 01:36:03;;;;;;;0.80;0.70;;;;;;;2.63;100.00;91271.16;2089344;28;20027;-79
2024/02/24 01:37:05;;;;;;;0.77;0.70;;;;;;;2.62;100.00;91273.03;2097546;28;20091;-79
2024/02/24 01:38:05;;;;;;;1.15;0.60;;;;;;;2.63;100.00;91271.88;2105768;28;20028;-81
2024/02/24 01:39:08;;;;;;;1.83;0.70;;;;;;;2.72;100.00;91263.41;2097429;28;20036;-80
2024/02/24 01:40:09;;;;;;;0.98;0.55;;;;;;;2.78;100.00;91274.97;2091490;28;20067;-82
2024/02/24 01:41:10;;;;;;;2.55;0.73;;;;;;;2.77;100.00;91274.22;2089288;28;20036;-80
2024/02/24 01:42:11;;;;;;;1.73;0.63;;;;;;;2.73;100.00;91270.19;2089333;28;20051;-80
2024/02/24 01:43:36;;;;;;;0.70;0.68;;;;;;;2.66;100.00;91267.69;2096824;28;20103;-80
2024/02/24 01:44:37;;;;;;;2.80;0.60;;;;;;;2.65;100.00;91266.97;2099301;28;20059;-79
2024/02/24 01:45:38;;;;;;;1.67;0.80;;;;;;;2.62;100.00;91259.13;2092267;28;20029;-80
2024/02/24 01:46:40;;;;;;;1.88;0.75;;;;;;;2.69;100.00;91262.34;2084315;28;20420;-81
2024/02/24 01:47:41;;;;;;;1.17;0.70;;;;;;;2.67;100.00;91254.09;2090214;28;20091;-81
2024/02/24 01:48:42;;;;;;;1.63;0.70;;;;;;;2.42;100.00;91257.28;2097471;28;20083;-81
2024/02/24 01:49:44;;;;;;;2.40;0.90;;;;;;;2.19;100.00;91258.13;2105821;28;20031;-83
2024/02/24 01:50:48;;;;;;;1.10;1.00;;;;;;;2.42;100.00;91257.28;2105663;28;20071;-80
2024/02/24 01:51:49;;;;;;;1.30;0.80;;;;;;;2.19;100.00;91260.03;2097458;28;20108;-79
2024/02/24 01:52:50;;;;;;;1.35;0.95;;;;;;;2.25;100.00;91255.78;2099912;28;20028;-81
2024/02/24 01:53:51;;;;;;;2.33;0.80;;;;;;;2.36;100.00;91255.53;2103648;28;20039;-80
2024/02/24 01:55:04;;;;;;;1.50;0.70;;;;;;;2.47;100.00;91242.88;2095288;28;20021;-82
2024/02/24 01:56:08;;;;;;;1.13;0.70;;;;;;;2.61;100.00;91233.91;2097443;28;20027;-80
2024/02/24 01:57:11;;;;;;;2.88;0.93;;;;;;;2.61;100.00;91241.81;2105709;28;20024;-82
2024/02/24 01:58:12;;;;;;;1.55;0.80;;;;;;;2.63;100.00;91242.13;2096959;28;20085;-80
2024/02/24 01:59:14;;;;;;;0.70;0.63;;;;;;;2.49;100.00;91237.94;2088926;28;20040;-81
2024/02/24 02:00:15;;;;;;;1.33;0.80;;;;;;;2.47;100.00;91232.34;2088625;28;20013;-81
2024/02/24 02:01:17;;;;;;;2.05;0.70;;;;;;;2.49;100.00;91240.56;2082800;28;20029;-79
2024/02/24 02:02:18;;;;;;;1.38;0.80;;;;;;;2.43;100.00;91244.84;2096143;28;20036;-82
2024/02/24 02:03:18;;;;;;;1.30;0.80;;;;;;;2.40;100.00;91237.75;2097631;28;20032;-81
2024/02/24 02:04:19;;;;;;;1.20;0.70;;;;;;;2.34;100.00;91242.78;2089224;28;20079;-81
2024/02/24 02:05:20;;;;;;;1.13;0.85;;;;;;;2.45;100.00;91238.00;2097364;28;20414;-81
2024/02/24 02:06:22;;;;;;;2.08;1.00;;;;;;;2.47;100.00;91234.97;2105983;28;20024;-80
2024/02/24 02:07:23;;;;;;;1.38;1.10;;;;;;;2.43;100.00;91229.03;2105753;28;20065;-82
2024/02/24 02:08:24;;;;;;;0.90;0.80;;;;;;;2.42;100.00;91238.84;2105902;28;20039;-80
2024/02/24 02:09:25;;;;;;;0.82;0.77;;;;;;;2.32;100.00;91233.78;2104712;28;20028;-80
2024/02/24 02:10:41;;;;;;;1.55;0.95;;;;;;;2.22;100.00;91238.88;2090047;28;20032;-80
2024/02/24 02:11:43;;;;;;;2.03;1.00;;;;;;;2.11;100.00;91242.88;2103924;28;20020;-80
2024/02/24 02:12:44;;;;;;;1.23;0.80;;;;;;;2.27;100.00;91248.19;2109792;28;20157;-81
2024/02/24 02:13:45;;;;;;;0.95;0.80;;;;;;;2.40;100.00;91243.03;2105817;28;20522;-82
2024/02/24 02:14:46;;;;;;;1.02;0.80;;;;;;;2.35;100.00;91238.25;2105932;28;20036;-80
2024/02/24 02:16:30;;;;;;;2.10;0.85;;;;;;;2.32;100.00;91246.97;2114341;28;20068;-80
2024/02/24 02:17:31;;;;;;;2.80;0.77;;;;;;;2.25;100.00;91255.78;2105506;28;20044;-81
2024/02/24 02:18:32;;;;;;;1.55;0.90;;;;;;;2.17;100.00;91249.91;2097492;28;20036;-82
2024/02/24 02:19:32;;;;;;;1.63;0.88;;;;;;;2.29;100.00;91253.06;2097566;28;20063;-80
2024/02/24 02:20:33;;;;;;;1.40;0.80;;;;;;;2.33;100.00;91256.34;2080888;28;20418;-80
2024/02/24 02:21:37;;;;;;;1.55;0.80;;;;;;;2.19;100.00;91260.75;2097513;28;20047;-79
2024/02/24 02:22:38;;;;;;;2.42;0.80;;;;;;;2.04;100.00;91258.84;2103632;28;20044;-82
2024/02/24 02:23:39;;;;;;;1.20;0.80;;;;;;;1.99;100.00;91255.53;2107333;28;20019;-82
2024/02/24 02:24:40;;;;;;;0.95;0.70;;;;;;;2.30;100.00;91257.94;2097294;28;20749;-80
2024/02/24 02:26:45;;;;;;;0.75;0.75;;;;;;;0.79;100.00;91258.41;2139457;27;20177;-83
2024/02/24 02:27:46;;;;;;;1.25;0.93;;;;;;;0.88;100.00;91263.91;2130280;27;20138;-81
2024/02/24 02:28:48;;;;;;;2.13;0.90;;;;;;;0.85;100.00;91265.47;2119581;28;20034;-81
2024/02/24 02:29:49;;;;;;;2.58;0.88;;;;;;;0.92;100.00;91262.72;2104853;28;20520;-82
2024/02/24 02:30:51;;;;;;;0.80;0.80;;;;;;;0.93;100.00;91258.94;2104119;28;20036;-81
2024/02/24 02:31:52;;;;;;;2.13;1.00;;;;;;;0.89;100.00;91257.53;2113479;27;20024;-81
2024/02/24 02:32:53;;;;;;;1.25;1.10;;;;;;;0.83;100.00;91251.22;2121470;27;20034;-82
2024/02/24 02:33:54;;;;;;;1.33;1.10;;;;;;;0.89;100.00;91250.38;2129985;27;20023;-81
2024/02/24 02:34:55;;;;;;;2.38;1.20;;;;;;;0.90;100.00;91253.75;2121589;28;20027;-83
2024/02/24 02:35:56;;;;;;;2.35;1.05;;;;;;;0.95;100.00;91250.66;2113223;28;20021;-81
2024/02/24 02:36:57;;;;;;;1.40;1.20;;;;;;;1.06;100.00;91242.59;2105220;28;20051;-81
2024/02/24 02:37:58;;;;;;;1.42;1.20;;;;;;;1.13;100.00;91242.47;2107142;28;20051;-82
2024/02/24 02:38:58;;;;;;;2.47;1.25;;;;;;;1.12;100.00;91241.72;2113179;28;20511;-82
2024/02/24 02:39:59;;;;;;;1.73;1.33;;;;;;;1.07;100.00;91250.09;2113110;28;20024;-82
2024/02/24 02:41:03;;;;;;;1.88;1.20;;;;;;;1.01;100.00;91251.69;2104668;28;20469;-83
2024/02/24 02:42:04;;;;;;;2.42;1.00;;;;;;;1.03;100.00;91249.41;2113429;28;20077;-82
2024/02/24 02:43:05;;;;;;;2.03;1.20;;;;;;;1.09;100.00;91254.94;2104796;28;20028;-82
2024/02/24 02:44:08;;;;;;;1.58;1.30;;;;;;;1.04;100.00;91261.41;2112922;28;20027;-82
2024/02/24 02:45:09;;;;;;;2.25;1.40;;;;;;;1.03;100.00;91253.91;2127815;27;20030;-84
2024/02/24 02:46:09;;;;;;;1.48;1.25;;;;;;;1.05;100.00;91257.63;2138727;27;20033;-82
2024/02/24 02:47:11;;;;;;;1.80;1.00;;;;;;;1.09;100.00;91257.56;2133412;27;20791;-83
2024/02/24 02:48:11;;;;;;;3.15;1.17;;;;;;;1.00;100.00;91256.19;2125365;27;20027;-82
2024/02/24 02:49:13;;;;;;;2.53;1.40;;;;;;;1.03;100.00;91252.03;2110476;28;20115;-81
2024/02/24 02:50:14;;;;;;;1.77;1.10;;;;;;;1.14;100.00;91255.22;2031500;27;20469;-80
2024/02/24 02:51:15;;;;;;;1.20;1.10;;;;;;;1.04;100.00;91247.50;2049650;27;20061;-81
2024/02/24 02:52:16;;;;;;;2.55;1.27;;;;;;;1.11;100.00;91255.28;2067359;27;20028;-81
2024/02/24 02:53:17;;;;;;;1.20;1.10;;;;;;;1.03;100.00;91251.28;2068464;27;20378;-82
2024/02/24 02:54:18;;;;;;;1.60;1.20;;;;;;;1.04;100.00;91255.41;2075130;27;20099;-83
2024/02/24 02:55:20;;;;;;;2.53;1.35;;;;;;;1.11;100.00;91245.50;2075926;27;20468;-81
2024/02/24 02:56:22;;;;;;;2.22;1.00;;;;;;;1.16;100.00;91247.66;2080900;27;20027;-83
2024/02/24 02:57:24;;;;;;;1.13;1.00;;;;;;;1.14;100.00;91252.59;2075606;28;20090;-81
2024/02/24 02:58:24;;;;;;;0.95;0.90;;;;;;;1.15;100.00;91248.06;2076004;27;20028;-82
2024/02/24 02:59:25;;;;;;;0.93;0.93;;;;;;;1.11;100.00;91248.13;2089526;28;20807;-82
2024/02/24 03:00:26;;;;;;;1.77;0.90;;;;;;;1.03;100.00;91251.28;2094110;28;20790;-83
2024/02/24 03:01:35;;;;;;;1.33;1.15;;;;;;;1.70;100.00;91260.59;2099392;28;20019;-81
2024/02/24 03:02:36;;;;;;;2.17;1.10;;;;;;;1.66;100.00;91264.44;2121014;27;20456;-82
2024/02/24 03:03:37;;;;;;;2.72;1.20;;;;;;;1.50;100.00;91260.59;2112722;28;20031;-82
2024/02/24 03:04:38;;;;;;;1.23;1.10;;;;;;;1.44;100.00;91264.84;2113003;28;20114;-82
2024/02/24 03:05:39;;;;;;;2.20;1.20;;;;;;;1.41;100.00;91259.66;2104304;28;20058;-81
2024/02/24 03:06:39;;;;;;;3.50;1.20;;;;;;;1.36;100.00;91262.72;2112762;28;20029;-81
2024/02/24 03:07:40;;;;;;;1.65;1.30;;;;;;;1.32;100.00;91267.31;2121314;28;20034;-82
2024/02/24 03:08:41;;;;;;;1.60;1.20;;;;;;;1.30;100.00;91265.09;2121295;28;20739;-81
2024/02/24 03:09:47;;;;;;;2.33;1.05;;;;;;;1.23;100.00;91270.50;2104374;28;20079;-82
2024/02/24 03:10:48;;;;;;;1.30;1.10;;;;;;;1.23;100.00;91254.72;2105697;28;20111;-81
2024/02/24 03:11:49;;;;;;;1.58;1.02;;;;;;;1.26;100.00;91261.78;2112959;28;20171;-82
2024/02/24 03:12:50;;;;;;;1.25;1.00;;;;;;;1.33;100.00;91255.66;2104442;28;20032;-81
2024/02/24 03:13:51;;;;;;;1.35;1.17;;;;;;;1.44;100.00;91258.84;2119399;28;20523;-83
2024/02/24 03:14:52;;;;;;;3.00;1.20;;;;;;;1.45;100.00;91255.06;2121239;28;20027;-81
2024/02/24 03:15:53;;;;;;;1.20;1.10;;;;;;;1.46;100.00;91272.34;2129872;27;20376;-81
2024/02/24 03:16:54;;;;;;;1.85;1.35;;;;;;;1.33;100.00;91263.56;2121187;28;20027;-82
2024/02/24 03:17:55;;;;;;;1.25;1.10;;;;;;;1.61;100.00;91267.56;2121197;27;20407;-79
2024/02/24 03:18:56;;;;;;;1.83;1.17;;;;;;;1.45;100.00;91268.97;2121169;28;20069;-83
2024/02/24 03:19:57;;;;;;;1.10;1.00;;;;;;;1.44;100.00;91267.47;2121174;27;20064;-81
2024/02/24 03:20:58;;;;;;;1.02;1.00;;;;;;;1.45;100.00;91273.50;2120828;28;20314;-82
2024/02/24 03:22:00;;;;;;;1.10;1.00;;;;;;;1.35;100.00;91271.78;2112657;28;20015;-81
2024/02/24 03:23:04;;;;;;;0.70;0.70;;;;;;;1.19;100.00;91272.44;2109081;27;20078;-82
2024/02/24 03:24:05;;;;;;;1.55;1.05;;;;;;;1.25;100.00;91268.19;2128412;27;20031;-81
2024/02/24 03:25:07;;;;;;;1.10;0.93;;;;;;;1.14;100.00;91267.63;2062899;27;20042;-82
2024/02/24 03:26:08;;;;;;;0.85;0.85;;;;;;;1.19;100.00;91261.91;2050424;27;20174;-82
2024/02/24 03:27:13;;;;;;;2.33;1.02;;;;;;;1.16;100.00;91252.94;2050483;28;20034;-81
2024/02/24 03:28:15;;;;;;;2.60;1.13;;;;;;;1.12;100.00;91262.78;2057654;27;20031;-82
2024/02/24 03:29:16;;;;;;;2.55;1.17;;;;;;;1.04;100.00;91263.28;2060855;27;21820;-80
2024/02/24 03:30:17;;;;;;;1.50;1.00;;;;;;;0.92;100.00;91262.72;2047061;28;20436;-82
2024/02/24 03:31:18;;;;;;;1.77;1.45;;;;;;;0.88;100.00;91258.66;2054707;28;20028;-82
2024/02/24 03:32:19;;;;;;;1.13;0.93;;;;;;;0.83;100.00;91259.09;2072930;28;20123;-81
2024/02/24 03:33:20;;;;;;;1.08;1.00;;;;;;;0.85;100.00;91257.56;2073411;28;20024;-80
2024/02/24 03:34:21;;;;;;;1.35;1.25;;;;;;;0.72;100.00;91260.03;2079351;28;20024;-81
2024/02/24 03:35:21;;;;;;;0.80;0.77;;;;;;;0.77;100.00;91258.81;2091323;28;20027;-82
2024/02/24 03:36:23;;;;;;;1.40;1.00;;;;;;;0.71;100.00;91255.91;2077270;28;20690;-80
2024/02/24 03:37:24;;;;;;;2.47;1.20;;;;;;;0.69;100.00;91255.56;2101788;28;20035;-81
2024/02/24 03:38:25;;;;;;;2.42;1.00;;;;;;;0.64;100.00;91260.53;2105043;28;20042;-81
2024/02/24 03:39:26;;;;;;;2.72;1.17;;;;;;;0.77;100.00;91256.19;2115248;28;20031;-82
2024/02/24 03:40:27;;;;;;;1.27;1.17;;;;;;;0.70;100.00;91259.69;2107014;28;20024;-81
2024/02/24 03:41:31;;;;;;;1.05;0.90;;;;;;;0.54;100.00;91266.69;2107145;28;20024;-82
2024/02/24 03:42:32;;;;;;;1.52;1.02;;;;;;;0.56;100.00;91265.13;2107422;28;20146;-83
2024/02/24 03:43:34;;;;;;;1.25;1.10;;;;;;;0.54;100.00;91270.06;2107193;28;20020;-83
2024/02/24 03:44:35;;;;;;;1.30;1.00;;;;;;;0.63;100.00;91259.78;2107069;28;20744;-81
2024/02/24 03:45:36;;;;;;;2.60;1.38;;;;;;;0.54;100.00;91261.44;2106921;28;20028;-82
2024/02/24 03:46:37;;;;;;;1.50;1.00;;;;;;;0.64;100.00;91263.91;2106847;28;20058;-81
2024/02/24 03:47:38;;;;;;;2.65;1.20;;;;;;;0.42;100.00;91260.84;2110455;28;20034;-81
2024/02/24 03:48:39;;;;;;;1.35;1.17;;;;;;;0.32;100.00;91255.75;2106880;28;20031;-80
2024/02/24 03:49:41;;;;;;;1.40;1.25;;;;;;;0.52;100.00;91266.34;2106832;28;20378;-81
2024/02/24 03:50:42;;;;;;;1.38;1.15;;;;;;;0.42;100.00;91257.47;2118996;27;20353;-82
2024/02/24 03:51:43;;;;;;;1.45;1.33;;;;;;;0.34;100.00;91267.31;2114954;27;20034;-81
2024/02/24 03:52:45;;;;;;;1.70;1.20;;;;;;;0.49;100.00;91260.00;2123591;27;20434;-81
2024/02/24 03:53:47;;;;;;;1.48;1.35;;;;;;;0.37;100.00;91263.19;2119026;27;20024;-83
2024/02/24 03:54:48;;;;;;;2.03;1.75;;;;;;;0.46;100.00;91266.78;2105683;28;20031;-81
2024/02/24 03:55:49;;;;;;;2.42;1.60;;;;;;;0.35;100.00;91266.22;2118741;27;20377;-82
2024/02/24 03:56:51;;;;;;;2.42;1.30;;;;;;;0.40;100.00;91268.38;2112029;28;20032;-81
2024/02/24 03:57:52;;;;;;;1.85;1.20;;;;;;;0.52;100.00;91266.34;2115152;28;20016;-82
2024/02/24 03:58:53;;;;;;;1.20;1.10;;;;;;;0.55;100.00;91263.66;2106706;28;20091;-82
2024/02/24 03:59:54;;;;;;;1.38;1.27;;;;;;;0.39;100.00;91264.25;2090115;28;20025;-82
2024/02/24 04:00:56;;;;;;;2.92;1.40;;;;;;;0.37;100.00;91263.19;2102267;28;20105;-82
2024/02/24 04:01:59;;;;;;;2.90;1.40;;;;;;;0.46;100.00;91268.69;2098527;28;20119;-83
2024/02/24 04:03:01;;;;;;;1.60;1.50;;;;;;;0.55;100.00;91276.06;2113672;28;20027;-81
2024/02/24 04:04:02;;;;;;;1.60;1.50;;;;;;;0.60;100.00;91276.34;2120329;27;20022;-82
2024/02/24 04:05:04;;;;;;;3.03;1.80;;;;;;;0.66;100.00;91268.75;2103225;28;20031;-82
2024/02/24 04:06:05;;;;;;;2.03;1.80;;;;;;;0.55;100.00;91274.16;2098465;28;20123;-80
2024/02/24 04:07:06;;;;;;;2.05;1.70;;;;;;;0.52;100.00;91274.97;2107896;28;20111;-82
2024/02/24 04:08:07;;;;;;;2.33;2.00;;;;;;;0.61;100.00;91277.81;2118855;27;20030;-81
2024/02/24 04:09:08;;;;;;;2.13;1.92;;;;;;;0.64;100.00;91276.31;2115315;28;20027;-83
2024/02/24 04:10:09;;;;;;;2.47;1.83;;;;;;;0.53;100.00;91283.59;2099069;28;20024;-81
2024/02/24 04:11:10;;;;;;;3.03;2.00;;;;;;;0.50;100.00;91287.75;2114711;28;20068;-81
2024/02/24 04:12:11;;;;;;;2.42;1.80;;;;;;;0.72;100.00;91285.56;2115453;27;20032;-81
2024/02/24 04:13:12;;;;;;;3.97;1.85;;;;;;;0.44;100.00;91287.47;2123245;27;20434;-81
2024/02/24 04:14:13;;;;;;;2.38;1.92;;;;;;;0.65;100.00;91296.94;2115134;28;20028;-81
2024/02/24 04:15:20;;;;;;;2.10;1.90;;;;;;;0.50;100.00;91300.91;2106611;28;20034;-82
2024/02/24 04:16:26;;;;;;;2.63;1.90;;;;;;;0.52;100.00;91298.63;2109706;27;20109;-81
2024/02/24 04:17:27;;;;;;;2.80;2.30;;;;;;;0.48;100.00;91303.19;2123406;27;20033;-81
2024/02/24 04:18:27;;;;;;;4.47;2.50;;;;;;;0.66;100.00;91300.28;2123672;27;20785;-82
2024/02/24 04:19:28;;;;;;;3.30;1.90;;;;;;;0.72;100.00;91301.34;2106577;28;20027;-82
2024/02/24 04:20:29;;;;;;;3.55;1.80;;;;;;;0.74;100.00;91296.44;2106811;28;20047;-81
2024/02/24 04:21:30;;;;;;;3.55;1.92;;;;;;;0.73;100.00;91297.56;2112707;28;20032;-82
2024/02/24 04:22:31;;;;;;;3.38;2.10;;;;;;;0.71;100.00;91295.34;2106704;28;20051;-80
2024/02/24 04:23:32;;;;;;;3.22;2.40;;;;;;;0.67;100.00;91302.53;2106663;28;20016;-81
2024/02/24 04:24:33;;;;;;;3.75;2.10;;;;;;;0.55;100.00;91310.97;2107676;27;20035;-81
2024/02/24 04:25:34;;;;;;;2.17;1.95;;;;;;;0.63;100.00;91303.75;2126292;27;21793;-82
2024/02/24 04:26:35;;;;;;;4.93;2.40;;;;;;;0.62;100.00;91302.25;2115745;27;20049;-80
2024/02/24 04:27:36;;;;;;;3.72;2.08;;;;;;;0.70;100.00;91308.88;2115000;28;20027;-81
2024/02/24 04:28:37;;;;;;;2.08;1.88;;;;;;;0.78;100.00;91309.53;2118143;27;20027;-82
2024/02/24 04:29:38;;;;;;;3.38;2.20;;;;;;;0.73;100.00;91308.84;2114962;28;20031;-81
2024/02/24 04:30:39;;;;;;;3.30;2.20;;;;;;;0.92;100.00;91310.06;2101921;28;20028;-81
2024/02/24 04:31:40;;;;;;;3.65;2.30;;;;;;;0.91;100.00;91321.72;2104780;28;20024;-82
2024/02/24 04:32:41;;;;;;;4.72;2.42;;;;;;;0.78;100.00;91315.53;2101750;28;20032;-81
2024/02/24 04:33:43;;;;;;;2.97;2.25;;;;;;;0.76;100.00;91317.81;2119392;27;20032;-81
2024/02/24 04:34:44;;;;;;;4.57;2.22;;;;;;;1.13;100.00;91321.38;2121072;27;20027;-82
2024/02/24 04:35:45;;;;;;;2.97;2.42;;;;;;;1.03;100.00;91317.78;2115013;28;20019;-82
2024/02/24 04:36:46;;;;;;;3.42;3.13;;;;;;;1.22;100.00;91316.34;2107894;28;20434;-82
2024/02/24 04:37:47;;;;;;;2.70;2.10;;;;;;;1.06;100.00;91326.78;2108499;27;20546;-82
2024/02/24 04:38:48;;;;;;;2.60;2.40;;;;;;;1.05;100.00;91327.91;2106667;28;20111;-81
2024/02/24 04:39:49;;;;;;;2.83;2.40;;;;;;;0.91;100.00;91326.97;2106486;28;20020;-81
2024/02/24 04:40:50;;;;;;;3.33;2.25;;;;;;;0.94;100.00;91326.19;2114784;28;20110;-81
2024/02/24 04:41:51;;;;;;;4.15;2.58;;;;;;;1.02;100.00;91332.09;2098104;28;20028;-80
2024/02/24 04:42:52;;;;;;;3.15;2.30;;;;;;;1.10;100.00;91324.81;2111726;28;20072;-81
2024/02/24 04:43:53;;;;;;;3.67;2.63;;;;;;;1.05;100.00;91330.53;2114923;28;20487;-82
2024/02/24 04:44:53;;;;;;;3.60;2.22;;;;;;;0.92;100.00;91328.47;2106421;28;20039;-80
2024/02/24 04:45:54;;;;;;;2.92;2.35;;;;;;;0.87;100.00;91334.16;2098001;28;20059;-81
2024/02/24 04:46:56;;;;;;;5.28;2.50;;;;;;;0.84;100.00;91329.00;2112221;28;20030;-80
2024/02/24 04:47:57;;;;;;;2.97;2.50;;;;;;;0.93;100.00;91326.59;2114825;28;20414;-82
2024/02/24 04:48:58;;;;;;;2.60;2.33;;;;;;;0.92;100.00;91328.47;2114693;27;20032;-81
2024/02/24 04:50:00;;;;;;;2.78;2.40;;;;;;;0.91;100.00;91336.75;2114162;28;20023;-81
2024/02/24 04:51:01;;;;;;;3.63;2.90;;;;;;;0.77;100.00;91324.56;2110455;28;20045;-80
2024/02/24 04:52:02;;;;;;;4.05;3.03;;;;;;;0.81;100.00;91322.63;2110444;28;20058;-81